Time;durP1;ratioP1;P1;durP2;ratioP2;P2;SDS_P1;SDS_P2;PMS_P1;PMS_P2;Temp;Humidity;BMP_temperature;BMP_pressure;BME280_temperature;BME280_humidity;BME280_pressure;Samples;Min_cycle;Max_cycle;Signal;HPM_P1;HPM_P2
2022/10/30 00:01:20;;;;;;;190.38;179.55;;;;;;;17.97;64.71;97117.59;5092389;28;20157;-57
2022/10/30 00:03:45;;;;;;;187.70;176.60;;;;;;;18.01;64.53;97123.97;5091993;28;20185;-59
2022/10/30 00:06:11;;;;;;;195.75;184.52;;;;;;;18.02;64.42;97118.41;5090999;28;20184;-57
2022/10/30 00:08:36;;;;;;;215.68;203.02;;;;;;;17.99;64.61;97115.50;5092510;28;20207;-58
2022/10/30 00:11:10;;;;;;;235.32;221.43;;;;;;;18.00;65.15;97120.50;5092070;28;20177;-59
2022/10/30 00:13:36;;;;;;;233.50;219.43;;;;;;;18.01;65.28;97113.34;5091352;28;20720;-58
2022/10/30 00:16:05;;;;;;;233.82;219.57;;;;;;;17.96;65.62;97116.81;5092647;28;20185;-57
2022/10/30 00:18:30;;;;;;;229.57;215.63;;;;;;;17.95;65.60;97114.41;5092227;28;20207;-58
2022/10/30 00:20:56;;;;;;;227.02;213.25;;;;;;;17.88;65.84;97113.91;5092590;28;20161;-58
2022/10/30 00:23:21;;;;;;;210.23;197.45;;;;;;;17.88;65.78;97108.59;5092149;28;20173;-58
2022/10/30 00:25:47;;;;;;;190.05;178.18;;;;;;;17.85;66.05;97108.06;5091707;28;20226;-57
2022/10/30 00:28:12;;;;;;;169.05;158.98;;;;;;;17.78;66.21;97106.72;5091894;28;20221;-57
2022/10/30 00:30:38;;;;;;;135.77;126.68;;;;;;;17.78;66.28;97110.16;5092328;28;20225;-58
2022/10/30 00:33:03;;;;;;;97.88;91.38;;;;;;;17.73;67.11;97107.50;5092129;28;20562;-56
2022/10/30 00:35:29;;;;;;;90.72;84.20;;;;;;;17.68;67.27;97106.72;5091478;28;20586;-57
2022/10/30 00:37:55;;;;;;;90.25;84.57;;;;;;;17.61;67.60;97109.59;5091969;28;20188;-53
2022/10/30 00:40:20;;;;;;;93.82;87.47;;;;;;;17.56;68.04;97098.97;5092044;28;20656;-53
2022/10/30 00:42:46;;;;;;;133.07;124.47;;;;;;;17.58;67.96;97098.72;5092132;28;20219;-54
2022/10/30 00:45:13;;;;;;;185.05;173.35;;;;;;;17.56;68.30;97106.91;5091911;28;20234;-55
2022/10/30 00:47:51;;;;;;;282.67;265.40;;;;;;;17.49;68.69;97101.09;5084384;28;20321;-57
2022/10/30 00:50:30;;;;;;;335.45;315.52;;;;;;;17.43;69.34;97092.34;5074249;28;20174;-56
2022/10/30 00:53:00;;;;;;;338.73;318.88;;;;;;;17.37;69.88;97103.19;5072216;28;20196;-59
2022/10/30 00:55:35;;;;;;;276.40;260.88;;;;;;;17.41;70.41;97091.78;5071482;28;20193;-55
2022/10/30 00:58:06;;;;;;;228.48;215.75;;;;;;;17.38;70.39;97091.53;5086108;28;20231;-58
2022/10/30 01:00:33;;;;;;;253.73;238.82;;;;;;;17.35;70.51;97095.50;5091502;28;20259;-59
2022/10/30 01:02:59;;;;;;;246.70;232.88;;;;;;;17.31;70.69;97088.34;5092323;28;20153;-58
2022/10/30 01:05:27;;;;;;;257.42;242.52;;;;;;;17.31;70.94;97096.28;5073841;28;20203;-59
2022/10/30 01:07:53;;;;;;;210.20;198.45;;;;;;;17.31;71.17;97088.34;5071826;28;20205;-59
2022/10/30 01:10:18;;;;;;;80.65;75.38;;;;;;;17.34;71.57;97090.44;5071996;28;20205;-59
2022/10/30 01:12:46;;;;;;;20.95;19.33;;;;;;;17.30;72.39;97090.19;5083737;28;20200;-59
2022/10/30 01:15:12;;;;;;;30.77;28.55;;;;;;;17.21;72.96;97083.00;5089438;28;20251;-57
2022/10/30 01:17:56;;;;;;;32.22;29.77;;;;;;;17.10;73.47;97087.50;5080957;28;20564;-59
2022/10/30 01:20:36;;;;;;;24.85;22.55;;;;;;;17.13;73.34;97092.25;5075477;28;20188;-59
2022/10/30 01:23:17;;;;;;;22.27;20.27;;;;;;;17.03;73.66;97081.63;5080693;28;20207;-59
2022/10/30 01:26:16;;;;;;;15.57;14.07;;;;;;;16.89;76.46;97083.94;5075306;28;20177;-59
2022/10/30 01:29:12;;;;;;;17.95;13.98;;;;;;;16.90;79.56;97092.69;5094708;28;20597;-59
2022/10/30 01:31:56;;;;;;;26.00;23.95;;;;;;;16.69;82.10;97099.75;5091582;28;20238;-59
2022/10/30 01:34:43;;;;;;;16.67;11.05;;;;;;;16.46;84.01;97102.78;5083686;28;20216;-59
2022/10/30 01:37:14;;;;;;;14.15;10.95;;;;;;;16.20;86.58;97093.88;5095002;28;20208;-59
2022/10/30 01:39:40;;;;;;;15.32;10.98;;;;;;;16.37;85.74;97085.78;5094378;28;20180;-59
2022/10/30 01:42:39;;;;;;;14.98;13.68;;;;;;;16.13;87.21;97088.81;5092947;28;20271;-59
2022/10/30 01:45:05;;;;;;;26.40;24.48;;;;;;;16.10;87.91;97083.25;5094732;28;20259;-59
2022/10/30 01:47:51;;;;;;;33.92;30.92;;;;;;;15.95;89.53;97086.56;5092374;28;20323;-57
2022/10/30 01:50:22;;;;;;;28.15;26.08;;;;;;;15.90;90.85;97089.16;5094629;28;20230;-59
2022/10/30 01:52:57;;;;;;;20.83;18.73;;;;;;;15.83;92.00;97083.28;5093798;28;20249;-59
2022/10/30 01:55:48;;;;;;;16.23;14.65;;;;;;;15.74;93.02;97080.31;5094099;28;20188;-59
2022/10/30 01:58:21;;;;;;;23.05;13.48;;;;;;;15.74;93.33;97077.69;5083008;28;20579;-58
2022/10/30 02:00:52;;;;;;;14.43;12.90;;;;;;;15.77;93.36;97079.03;5094436;28;20217;-57
2022/10/30 02:03:18;;;;;;;13.27;12.00;;;;;;;15.68;93.30;97078.69;5094150;28;20174;-54
2022/10/30 02:05:49;;;;;;;16.03;14.50;;;;;;;15.69;93.00;97076.84;5093786;28;20179;-58
2022/10/30 02:08:15;;;;;;;19.70;17.92;;;;;;;15.72;92.44;97078.97;5094355;28;20231;-57
2022/10/30 02:10:44;;;;;;;21.65;19.92;;;;;;;15.69;92.57;97068.91;5094358;28;20582;-57
2022/10/30 02:13:09;;;;;;;21.02;19.15;;;;;;;15.79;91.20;97069.78;5093918;28;20681;-57
2022/10/30 02:15:36;;;;;;;28.50;26.23;;;;;;;15.77;90.48;97065.81;5093690;28;20192;-58
2022/10/30 02:18:02;;;;;;;16.67;15.02;;;;;;;15.83;89.01;97064.78;5093403;28;20802;-56
2022/10/30 02:20:28;;;;;;;15.68;13.13;;;;;;;15.92;87.70;97063.28;5094009;28;20255;-58
2022/10/30 02:22:53;;;;;;;16.03;14.33;;;;;;;15.93;88.26;97056.94;5094076;28;20267;-58
2022/10/30 02:25:18;;;;;;;22.75;20.58;;;;;;;15.91;89.00;97058.25;5093442;28;20172;-55
2022/10/30 02:27:44;;;;;;;31.93;29.50;;;;;;;15.97;89.11;97059.88;5093986;28;20250;-58
2022/10/30 02:30:10;;;;;;;21.20;19.40;;;;;;;16.01;89.25;97050.38;5093147;28;20172;-56
2022/10/30 02:32:35;;;;;;;12.37;9.20;;;;;;;16.01;89.38;97053.03;5092641;28;20176;-56
2022/10/30 02:35:01;;;;;;;16.23;8.60;;;;;;;15.83;91.67;97059.50;5093580;28;20181;-54
2022/10/30 02:37:27;;;;;;;22.53;11.63;;;;;;;15.50;94.84;97049.16;5093641;28;20250;-57
2022/10/30 02:39:52;;;;;;;12.97;11.33;;;;;;;15.47;96.34;97050.47;5093358;28;20184;-54
2022/10/30 02:42:18;;;;;;;22.40;20.40;;;;;;;15.65;95.37;97052.78;5093131;28;20216;-56
2022/10/30 02:44:43;;;;;;;37.90;34.73;;;;;;;15.65;95.46;97059.91;5092677;28;20185;-54
2022/10/30 02:47:09;;;;;;;16.97;13.87;;;;;;;15.41;97.86;97051.47;5085222;28;20240;-57
2022/10/30 02:49:34;;;;;;;15.27;11.70;;;;;;;15.23;100.00;97057.88;5083405;28;20208;-57
2022/10/30 02:52:00;;;;;;;21.13;19.10;;;;;;;15.10;100.00;97060.91;5055553;28;20208;-56
2022/10/30 02:54:25;;;;;;;20.87;18.73;;;;;;;14.95;100.00;97058.13;5074333;28;20618;-54
2022/10/30 02:56:51;;;;;;;20.83;18.77;;;;;;;14.81;100.00;97056.91;5089582;28;20172;-56
2022/10/30 02:59:16;;;;;;;24.40;22.40;;;;;;;14.78;100.00;97054.75;5055474;28;20180;-56
2022/10/30 03:01:41;;;;;;;22.20;16.77;;;;;;;14.62;100.00;97045.06;5076014;28;20199;-56
2022/10/30 03:04:07;;;;;;;20.03;15.00;;;;;;;14.56;100.00;97055.53;5093121;28;20173;-57
2022/10/30 03:06:32;;;;;;;17.07;11.43;;;;;;;14.60;100.00;97047.94;5083068;28;20278;-55
2022/10/30 03:08:58;;;;;;;29.17;26.70;;;;;;;14.73;100.00;97046.78;5092540;28;20211;-54
2022/10/30 03:11:23;;;;;;;20.40;18.53;;;;;;;14.86;100.00;97051.69;5092419;28;20173;-57
2022/10/30 03:13:48;;;;;;;25.47;23.17;;;;;;;14.68;100.00;97044.88;5076015;28;20606;-58
2022/10/30 03:16:17;;;;;;;24.53;22.30;;;;;;;14.66;100.00;97051.44;5076247;28;20545;-57
2022/10/30 03:18:52;;;;;;;21.37;19.50;;;;;;;14.60;100.00;97047.16;5057129;28;20250;-57
2022/10/30 03:21:20;;;;;;;23.37;21.23;;;;;;;14.59;100.00;97048.19;5073064;28;20612;-58
2022/10/30 03:23:45;;;;;;;24.47;22.23;;;;;;;14.55;100.00;97046.03;5073174;28;20165;-58
2022/10/30 03:26:11;;;;;;;27.70;25.30;;;;;;;14.53;100.00;97047.34;5073589;28;20526;-57
2022/10/30 03:28:36;;;;;;;21.43;19.17;;;;;;;14.61;100.00;97046.91;5090803;28;20200;-58
2022/10/30 03:31:05;;;;;;;22.80;20.90;;;;;;;14.74;100.00;97048.38;5069108;28;20177;-56
2022/10/30 03:33:32;;;;;;;24.07;22.13;;;;;;;14.66;100.00;97046.16;5090929;28;20565;-58
2022/10/30 03:35:58;;;;;;;23.63;21.67;;;;;;;14.56;100.00;97055.53;5081838;28;20656;-58
2022/10/30 03:38:24;;;;;;;25.97;22.70;;;;;;;14.48;100.00;97060.47;5072564;28;20212;-57
2022/10/30 03:40:50;;;;;;;28.00;25.30;;;;;;;14.37;100.00;97058.72;5072233;28;20200;-56
2022/10/30 03:43:16;;;;;;;26.80;24.60;;;;;;;14.37;100.00;97067.44;5088479;28;20633;-58
2022/10/30 03:45:46;;;;;;;25.57;23.53;;;;;;;14.50;100.00;97071.56;5083437;28;20592;-57
2022/10/30 03:48:12;;;;;;;26.90;24.30;;;;;;;14.49;100.00;97070.75;5091020;28;20289;-55
2022/10/30 03:50:37;;;;;;;24.17;22.03;;;;;;;14.26;100.00;97064.88;5092585;28;20176;-57
2022/10/30 03:53:03;;;;;;;25.47;23.10;;;;;;;14.22;100.00;97061.09;5091207;28;20204;-54
2022/10/30 03:55:28;;;;;;;24.90;22.80;;;;;;;14.22;100.00;97071.66;5092318;28;20181;-57
2022/10/30 03:57:53;;;;;;;25.20;22.23;;;;;;;14.18;100.00;97065.28;5091892;28;20212;-53
2022/10/30 04:00:19;;;;;;;20.97;19.17;;;;;;;14.12;100.00;97081.03;5092296;28;20641;-57
2022/10/30 04:02:49;;;;;;;35.87;33.33;;;;;;;14.08;100.00;97085.19;5092133;28;20177;-54
2022/10/30 04:05:16;;;;;;;48.30;44.97;;;;;;;14.00;100.00;97077.69;5092180;28;20203;-57
2022/10/30 04:07:42;;;;;;;37.00;34.43;;;;;;;13.88;100.00;97087.50;5073122;28;20204;-54
2022/10/30 04:10:08;;;;;;;28.83;26.73;;;;;;;13.72;100.00;97083.81;5092380;28;20179;-53
2022/10/30 04:12:33;;;;;;;25.03;22.93;;;;;;;13.76;100.00;97078.91;5091598;28;20187;-57
2022/10/30 04:14:58;;;;;;;17.80;16.13;;;;;;;13.70;100.00;97088.56;5092240;28;20176;-57
2022/10/30 04:17:24;;;;;;;16.73;14.60;;;;;;;13.71;100.00;97078.78;5090947;28;20235;-55
2022/10/30 04:19:49;;;;;;;19.00;14.10;;;;;;;13.57;100.00;97082.78;5091831;28;20626;-55
2022/10/30 04:22:14;;;;;;;19.30;17.40;;;;;;;13.57;100.00;97074.88;5092187;28;20179;-57
2022/10/30 04:24:40;;;;;;;19.77;17.77;;;;;;;13.47;100.00;97079.97;5092170;28;20241;-57
2022/10/30 04:27:05;;;;;;;18.90;17.20;;;;;;;13.49;100.00;97081.31;5073953;28;20271;-53
2022/10/30 04:29:31;;;;;;;23.73;20.17;;;;;;;13.38;100.00;97086.66;5092113;28;20181;-56
2022/10/30 04:31:56;;;;;;;27.07;24.77;;;;;;;13.48;100.00;97078.94;5091189;28;20226;-57
2022/10/30 04:34:22;;;;;;;26.60;24.37;;;;;;;13.49;100.00;97080.53;5091796;28;20219;-54
2022/10/30 04:36:47;;;;;;;25.60;23.23;;;;;;;13.44;100.00;97077.81;5091998;28;20192;-56
2022/10/30 04:39:12;;;;;;;24.10;21.70;;;;;;;13.54;100.00;97078.00;5091649;28;20196;-54
2022/10/30 04:41:38;;;;;;;23.93;21.80;;;;;;;13.47;100.00;97079.97;5091648;28;20637;-53
2022/10/30 04:44:04;;;;;;;22.60;20.63;;;;;;;13.45;100.00;97074.94;5091765;28;20546;-58
2022/10/30 04:46:30;;;;;;;19.97;18.07;;;;;;;13.53;100.00;97081.66;5084198;28;20298;-54
2022/10/30 04:48:56;;;;;;;28.97;26.33;;;;;;;13.50;100.00;97082.13;5085222;28;20216;-56
2022/10/30 04:51:22;;;;;;;33.43;30.43;;;;;;;13.49;100.00;97086.59;5072109;28;20174;-58
2022/10/30 04:53:47;;;;;;;34.70;31.93;;;;;;;13.46;100.00;97081.00;5074258;28;20203;-55
2022/10/30 04:56:13;;;;;;;35.57;32.77;;;;;;;13.44;100.00;97078.59;5091638;28;20173;-58
2022/10/30 04:58:39;;;;;;;34.10;31.10;;;;;;;13.46;100.00;97076.53;5076092;28;20219;-58
2022/10/30 05:01:05;;;;;;;27.63;25.10;;;;;;;13.37;100.00;97069.28;5078137;28;20263;-55
2022/10/30 05:03:31;;;;;;;19.07;17.20;;;;;;;13.47;100.00;97067.63;5090774;28;20264;-58
2022/10/30 05:05:59;;;;;;;17.97;16.37;;;;;;;13.57;100.00;97070.41;5095300;28;20259;-56
2022/10/30 05:08:25;;;;;;;51.87;48.13;;;;;;;13.65;100.00;97069.22;5093213;28;20217;-58
2022/10/30 05:10:56;;;;;;;31.07;28.60;;;;;;;13.82;100.00;97062.09;5095070;28;20173;-57
2022/10/30 05:13:22;;;;;;;21.30;19.40;;;;;;;13.97;100.00;97059.72;5088751;28;20218;-58
2022/10/30 05:15:47;;;;;;;17.77;16.10;;;;;;;14.07;100.00;97056.44;5078917;28;20664;-58
2022/10/30 05:18:13;;;;;;;11.27;10.27;;;;;;;14.11;100.00;97057.53;5087213;28;20200;-54
2022/10/30 05:20:38;;;;;;;20.60;18.43;;;;;;;14.10;99.67;97056.72;5095213;28;20246;-56
2022/10/30 05:23:04;;;;;;;17.27;15.43;;;;;;;14.24;98.10;97065.13;5085112;28;20177;-58
2022/10/30 05:25:30;;;;;;;15.63;8.93;;;;;;;14.31;97.20;97063.13;5075103;28;20233;-56
2022/10/30 05:28:00;;;;;;;18.47;9.93;;;;;;;14.28;96.86;97055.66;5076022;28;20763;-56
2022/10/30 05:30:26;;;;;;;22.40;20.50;;;;;;;14.31;96.54;97054.41;5074967;28;20180;-57
2022/10/30 05:32:57;;;;;;;31.60;28.57;;;;;;;14.28;95.97;97052.22;5086758;28;20500;-57
2022/10/30 05:35:22;;;;;;;36.30;33.67;;;;;;;14.31;96.23;97055.19;5094975;28;20698;-56
2022/10/30 05:37:48;;;;;;;34.73;31.93;;;;;;;14.26;97.18;97054.34;5093296;28;20295;-58
2022/10/30 05:40:13;;;;;;;22.57;20.30;;;;;;;14.22;98.61;97056.63;5089545;28;20189;-58
2022/10/30 05:42:44;;;;;;;22.97;16.60;;;;;;;14.16;98.97;97055.78;5084385;28;20195;-58
2022/10/30 05:45:10;;;;;;;14.00;12.00;;;;;;;14.13;99.38;97058.09;5094321;28;20618;-54
2022/10/30 05:47:35;;;;;;;15.57;11.77;;;;;;;14.19;99.81;97056.34;5091084;28;20244;-57
2022/10/30 05:50:01;;;;;;;26.77;24.73;;;;;;;14.12;100.00;97061.78;5094409;28;20199;-58
2022/10/30 05:52:28;;;;;;;17.80;15.67;;;;;;;13.99;100.00;97072.63;5093977;28;20188;-58
2022/10/30 05:54:53;;;;;;;16.30;13.40;;;;;;;13.90;100.00;97058.28;5093422;28;20197;-56
2022/10/30 05:57:18;;;;;;;17.00;15.23;;;;;;;13.80;100.00;97064.19;5093713;28;20570;-55
2022/10/30 05:59:44;;;;;;;20.53;18.77;;;;;;;13.78;100.00;97063.63;5094933;28;20247;-57
2022/10/30 06:02:09;;;;;;;12.80;11.57;;;;;;;13.78;100.00;97063.63;5076853;28;20177;-58
2022/10/30 06:04:34;;;;;;;13.10;11.80;;;;;;;13.83;100.00;97066.34;5092640;28;20165;-57
2022/10/30 06:07:00;;;;;;;14.63;12.07;;;;;;;13.93;100.00;97060.44;5094291;28;20172;-57
2022/10/30 06:09:25;;;;;;;13.87;12.57;;;;;;;13.84;100.00;97067.13;5094582;28;20168;-55
2022/10/30 06:11:52;;;;;;;22.40;20.80;;;;;;;13.76;100.00;97059.66;5093688;28;20186;-52
2022/10/30 06:14:17;;;;;;;19.50;17.63;;;;;;;14.00;100.00;97053.97;5093984;28;20696;-53
2022/10/30 06:16:43;;;;;;;25.27;23.23;;;;;;;14.09;98.75;97063.06;5094269;28;20180;-52
2022/10/30 06:19:08;;;;;;;11.43;7.87;;;;;;;14.17;97.83;97067.13;5075872;28;20641;-57
2022/10/30 06:21:34;;;;;;;33.13;30.70;;;;;;;14.10;100.00;97062.00;5093927;28;20169;-53
2022/10/30 06:24:00;;;;;;;21.17;19.23;;;;;;;14.04;100.00;97070.09;5093651;28;20189;-52
2022/10/30 06:26:25;;;;;;;12.57;11.23;;;;;;;14.05;100.00;97061.13;5094183;28;20207;-55
2022/10/30 06:28:50;;;;;;;14.77;10.20;;;;;;;14.08;100.00;97060.66;5094083;28;20204;-53
2022/10/30 06:31:16;;;;;;;29.47;26.70;;;;;;;14.03;100.00;97057.97;5093792;28;20268;-53
2022/10/30 06:33:41;;;;;;;24.23;22.20;;;;;;;14.16;99.15;97071.59;5093446;28;20248;-52
2022/10/30 06:36:09;;;;;;;15.23;7.53;;;;;;;14.27;97.92;97069.88;5093477;28;20180;-55
2022/10/30 06:38:34;;;;;;;14.83;13.37;;;;;;;14.29;97.52;97075.72;5094222;28;20521;-58
2022/10/30 06:41:00;;;;;;;29.67;27.40;;;;;;;14.45;96.45;97072.28;5094004;28;20184;-54
2022/10/30 06:43:25;;;;;;;23.23;21.10;;;;;;;14.53;95.20;97071.88;5075862;28;20177;-52
2022/10/30 06:45:50;;;;;;;11.97;10.87;;;;;;;14.67;94.03;97060.94;5088342;28;21080;-51
2022/10/30 06:48:17;;;;;;;15.87;11.97;;;;;;;14.87;92.13;97067.28;5072912;28;20217;-52
2022/10/30 06:50:43;;;;;;;12.67;9.90;;;;;;;14.95;92.33;97066.03;5073271;28;20191;-52
2022/10/30 06:53:08;;;;;;;12.87;11.13;;;;;;;15.02;92.97;97065.84;5072654;28;20208;-52
2022/10/30 06:55:34;;;;;;;13.87;12.37;;;;;;;15.08;93.16;97068.31;5074492;28;20188;-54
2022/10/30 06:57:59;;;;;;;18.73;17.03;;;;;;;15.13;92.66;97073.63;5073124;28;20208;-54
2022/10/30 07:00:25;;;;;;;22.27;20.10;;;;;;;15.30;92.35;97060.34;5078868;28;20197;-52
2022/10/30 07:03:00;;;;;;;36.63;34.03;;;;;;;15.19;93.36;97070.00;5084154;28;20252;-54
2022/10/30 07:05:26;;;;;;;39.43;36.33;;;;;;;15.39;93.26;97069.41;5086770;28;20167;-56
2022/10/30 07:07:55;;;;;;;49.37;46.20;;;;;;;15.54;92.80;97085.44;5092568;28;20748;-53
2022/10/30 07:10:20;;;;;;;31.67;29.20;;;;;;;15.62;91.81;97078.88;5091116;28;20181;-54
2022/10/30 07:12:53;;;;;;;40.70;37.90;;;;;;;15.58;93.49;97070.66;5073634;28;20180;-54
2022/10/30 07:15:18;;;;;;;13.73;9.13;;;;;;;15.31;96.63;97083.06;5072585;28;20184;-59
2022/10/30 07:17:53;;;;;;;10.37;8.10;;;;;;;15.25;98.44;97082.22;5072640;28;20213;-57
2022/10/30 07:20:19;;;;;;;10.70;7.60;;;;;;;15.24;98.04;97070.06;5073129;28;20181;-52
2022/10/30 07:22:44;;;;;;;11.83;10.47;;;;;;;15.21;98.26;97075.03;5078281;28;20181;-52
2022/10/30 07:25:10;;;;;;;10.27;8.53;;;;;;;15.06;100.00;97088.06;5092309;28;20176;-55
2022/10/30 07:27:47;;;;;;;13.23;7.63;;;;;;;15.16;99.04;97081.03;5092540;28;20231;-55
2022/10/30 07:30:15;;;;;;;13.27;10.90;;;;;;;15.11;98.77;97086.28;5091589;28;20183;-58
2022/10/30 07:32:41;;;;;;;10.63;8.97;;;;;;;14.76;100.00;97089.31;5072530;28;20221;-58
2022/10/30 07:35:08;;;;;;;12.00;10.73;;;;;;;14.76;100.00;97080.59;5072355;28;20236;-56
2022/10/30 07:37:33;;;;;;;12.67;7.87;;;;;;;14.90;100.00;97087.09;5071173;28;20325;-55
2022/10/30 07:39:59;;;;;;;12.07;9.40;;;;;;;14.95;99.25;97084.50;5076847;28;20244;-57
2022/10/30 07:42:24;;;;;;;12.13;8.43;;;;;;;15.14;98.38;97085.78;5073941;28;20185;-57
2022/10/30 07:44:50;;;;;;;10.57;7.50;;;;;;;15.21;100.00;97073.16;5071074;28;20189;-59
2022/10/30 07:47:15;;;;;;;27.33;25.03;;;;;;;16.22;100.00;97078.53;5083163;28;20242;-63
2022/10/30 07:49:40;;;;;;;36.17;15.43;;;;;;;16.29;94.62;97076.47;5091779;28;20177;-59
2022/10/30 07:52:06;;;;;;;34.93;32.30;;;;;;;16.03;93.92;97080.00;5073572;28;20754;-59
2022/10/30 07:54:31;;;;;;;22.80;20.83;;;;;;;15.91;93.81;97085.47;5092594;28;20547;-58
2022/10/30 07:56:57;;;;;;;9.50;8.37;;;;;;;16.02;92.97;97083.72;5092363;28;20255;-59
2022/10/30 07:59:23;;;;;;;16.57;14.53;;;;;;;16.05;91.40;97085.84;5092577;28;20176;-59
2022/10/30 08:01:49;;;;;;;12.57;11.40;;;;;;;15.67;93.51;97090.28;5092353;28;20554;-59
2022/10/30 08:04:14;;;;;;;12.03;9.03;;;;;;;15.90;92.84;97091.00;5092601;28;20165;-59
2022/10/30 08:06:40;;;;;;;9.00;7.88;;;;;;;15.89;93.72;97084.91;5092315;28;20169;-59
2022/10/30 08:09:05;;;;;;;16.63;8.13;;;;;;;15.75;94.46;97089.84;5092197;28;20192;-58
2022/10/30 08:11:31;;;;;;;8.70;6.43;;;;;;;16.05;92.03;97083.97;5092006;28;20201;-59
2022/10/30 08:13:56;;;;;;;15.37;7.87;;;;;;;16.18;90.45;97088.03;5092154;28;20275;-59
2022/10/30 08:16:22;;;;;;;13.33;11.17;;;;;;;16.22;91.40;97089.13;5092241;28;20188;-58
2022/10/30 08:18:47;;;;;;;78.77;73.37;;;;;;;16.31;90.57;97089.47;5091330;28;20216;-57
2022/10/30 08:21:13;;;;;;;211.37;198.93;;;;;;;16.44;88.70;97089.78;5092265;28;20180;-59
2022/10/30 08:23:38;;;;;;;269.20;253.48;;;;;;;16.60;87.25;97086.22;5092351;28;20173;-59
2022/10/30 08:26:04;;;;;;;258.48;244.05;;;;;;;16.47;86.97;97089.28;5092402;28;20663;-57
2022/10/30 08:28:30;;;;;;;151.77;142.82;;;;;;;16.57;86.27;97088.53;5095160;28;20207;-56
2022/10/30 08:30:57;;;;;;;82.85;77.43;;;;;;;16.57;86.47;97086.69;5096283;28;20176;-58
2022/10/30 08:33:22;;;;;;;47.73;44.80;;;;;;;16.72;84.75;97087.88;5078094;28;20213;-59
2022/10/30 08:35:49;;;;;;;46.22;43.00;;;;;;;16.75;85.25;97088.16;5096268;28;20188;-59
2022/10/30 08:38:15;;;;;;;55.38;51.50;;;;;;;16.66;86.25;97089.69;5077868;28;20688;-58
2022/10/30 08:40:41;;;;;;;122.25;115.00;;;;;;;16.75;86.55;97087.34;5095794;28;20223;-61
2022/10/30 08:43:06;;;;;;;184.52;173.38;;;;;;;16.94;86.00;97088.50;5095960;28;20212;-59
2022/10/30 08:45:32;;;;;;;182.10;171.15;;;;;;;16.87;86.58;97087.94;5095755;28;20249;-59
2022/10/30 08:48:05;;;;;;;170.68;161.07;;;;;;;16.86;86.83;97087.13;5084124;28;20239;-58
2022/10/30 08:50:32;;;;;;;61.95;57.95;;;;;;;17.06;84.82;97086.41;5090856;28;20335;-58
2022/10/30 08:53:03;;;;;;;62.47;58.65;;;;;;;17.18;83.46;97086.97;5095014;28;20184;-59
2022/10/30 08:55:30;;;;;;;61.97;58.10;;;;;;;17.17;85.35;97089.88;5075910;28;20185;-59
2022/10/30 08:57:55;;;;;;;68.30;63.95;;;;;;;17.22;85.42;97085.38;5064000;28;20564;-59
2022/10/30 09:00:21;;;;;;;108.53;102.25;;;;;;;17.05;87.06;97084.84;5088838;28;20176;-60
2022/10/30 09:02:46;;;;;;;137.20;129.23;;;;;;;17.27;86.69;97087.28;5090950;28;20667;-59
2022/10/30 09:05:12;;;;;;;169.18;159.02;;;;;;;17.15;88.38;97089.34;5095438;28;20169;-60
2022/10/30 09:07:37;;;;;;;186.88;176.05;;;;;;;17.21;88.01;97090.97;5095786;28;20188;-58
2022/10/30 09:10:04;;;;;;;75.03;70.40;;;;;;;17.19;86.56;97085.13;5095886;28;20255;-59
2022/10/30 09:12:29;;;;;;;95.85;90.22;;;;;;;17.40;86.16;97092.06;5095705;28;20188;-59
2022/10/30 09:14:55;;;;;;;49.92;46.60;;;;;;;17.50;84.42;97086.75;5095286;28;20629;-59
2022/10/30 09:17:20;;;;;;;31.65;29.52;;;;;;;17.53;81.87;97088.91;5092886;28;20272;-57
2022/10/30 09:19:46;;;;;;;29.73;27.55;;;;;;;17.61;81.13;97088.41;5085428;28;20179;-59
2022/10/30 09:22:11;;;;;;;12.18;11.07;;;;;;;17.80;78.94;97086.03;5095627;28;20171;-62
2022/10/30 09:24:38;;;;;;;15.68;14.32;;;;;;;17.96;77.87;97092.13;5095339;28;20172;-54
2022/10/30 09:27:04;;;;;;;20.58;18.90;;;;;;;18.07;76.73;97089.22;5095907;28;20172;-55
2022/10/30 09:29:30;;;;;;;31.38;29.20;;;;;;;18.22;76.51;97086.53;5096046;28;20602;-58
2022/10/30 09:31:56;;;;;;;47.17;44.00;;;;;;;18.43;75.88;97095.28;5095225;28;20168;-59
2022/10/30 09:34:21;;;;;;;27.90;25.40;;;;;;;18.52;76.23;97096.31;5094485;28;20192;-58
2022/10/30 09:36:48;;;;;;;127.07;119.47;;;;;;;18.47;76.46;97103.50;5090439;28;20184;-55
2022/10/30 09:39:14;;;;;;;107.28;100.43;;;;;;;18.52;75.18;97104.28;5090363;28;20200;-57
2022/10/30 09:42:01;;;;;;;26.83;25.02;;;;;;;18.57;77.49;97106.16;5092678;28;20181;-57
2022/10/30 09:44:54;;;;;;;39.65;36.85;;;;;;;18.42;78.59;97095.53;5089259;28;20187;-58
2022/10/30 09:47:25;;;;;;;23.38;21.27;;;;;;;18.54;80.01;97094.22;5091896;28;20247;-59
2022/10/30 09:50:00;;;;;;;24.30;22.65;;;;;;;18.67;79.69;97090.97;5094071;28;20209;-59
2022/10/30 09:52:30;;;;;;;18.70;17.13;;;;;;;18.73;78.80;97099.72;5092294;28;20613;-59
2022/10/30 09:55:09;;;;;;;40.97;38.33;;;;;;;18.81;77.58;97099.19;5092654;28;20185;-58
2022/10/30 09:58:00;;;;;;;15.05;13.55;;;;;;;18.90;78.05;97105.50;5093462;28;20192;-56
2022/10/30 10:00:55;;;;;;;20.42;18.85;;;;;;;18.95;78.35;97096.72;5094724;28;20173;-60
2022/10/30 10:03:34;;;;;;;21.60;19.83;;;;;;;19.13;78.88;97093.47;5080973;28;20191;-59
2022/10/30 10:06:02;;;;;;;16.65;15.32;;;;;;;19.16;78.25;97097.44;5088877;28;20233;-57
2022/10/30 10:08:48;;;;;;;343.05;321.27;;;;;;;19.24;68.59;97097.66;5091183;28;20733;-58
2022/10/30 10:11:34;;;;;;;131.05;122.78;;;;;;;19.40;66.67;97103.69;5092644;28;20252;-57
2022/10/30 10:14:12;;;;;;;117.32;110.25;;;;;;;19.48;66.07;97095.16;5093027;28;20229;-57
2022/10/30 10:16:40;;;;;;;107.78;101.32;;;;;;;19.49;66.72;97094.09;5093598;28;20194;-59
2022/10/30 10:19:18;;;;;;;83.22;78.07;;;;;;;19.50;67.11;97096.47;5093235;28;20208;-60
2022/10/30 10:21:57;;;;;;;72.32;67.82;;;;;;;19.61;67.11;97096.44;5081732;28;20616;-59
2022/10/30 10:24:36;;;;;;;68.65;64.53;;;;;;;19.66;67.89;97099.06;5092997;28;20175;-58
2022/10/30 10:27:26;;;;;;;56.45;53.17;;;;;;;19.73;68.11;97094.19;5093274;28;20640;-58
2022/10/30 10:30:05;;;;;;;59.72;55.72;;;;;;;19.87;68.17;97098.63;5093669;28;20169;-58
2022/10/30 10:32:46;;;;;;;53.53;50.10;;;;;;;19.92;67.74;97093.25;5094191;28;20172;-58
2022/10/30 10:35:44;;;;;;;41.78;39.15;;;;;;;20.02;68.88;97096.91;5093747;28;20172;-59
2022/10/30 10:38:27;;;;;;;62.10;58.10;;;;;;;19.99;69.63;97103.59;5093078;28;20196;-58
2022/10/30 10:41:21;;;;;;;180.50;168.90;;;;;;;20.19;75.20;97087.44;5093383;28;20180;-61
2022/10/30 10:44:15;;;;;;;48.70;45.40;;;;;;;20.22;76.24;97089.56;5079267;28;20193;-59
2022/10/30 10:47:16;;;;;;;28.27;26.17;;;;;;;20.13;77.75;97088.56;5089325;28;20239;-59
2022/10/30 10:50:24;;;;;;;40.55;37.63;;;;;;;20.18;77.72;97082.38;5092027;28;20653;-60
2022/10/30 10:53:06;;;;;;;39.03;35.95;;;;;;;20.12;77.54;97078.19;5080820;28;20191;-60
2022/10/30 10:55:35;;;;;;;45.58;42.75;;;;;;;20.19;77.07;97087.44;5093486;28;20165;-61
2022/10/30 10:58:12;;;;;;;50.22;46.95;;;;;;;20.19;77.51;97084.78;5078950;28;20261;-57
2022/10/30 11:00:39;;;;;;;46.53;43.63;;;;;;;20.41;77.24;97088.84;5092811;28;20172;-59
2022/10/30 11:03:10;;;;;;;43.28;40.10;;;;;;;20.48;77.31;97076.81;5093342;28;20648;-58
2022/10/30 11:05:49;;;;;;;53.22;50.03;;;;;;;20.56;77.50;97078.06;5093397;28;20334;-60
2022/10/30 11:08:28;;;;;;;53.10;49.08;;;;;;;20.59;77.09;97072.97;5075125;28;20200;-62
2022/10/30 11:11:00;;;;;;;64.25;59.97;;;;;;;20.71;76.88;97068.03;5072896;28;20577;-60
2022/10/30 11:13:44;;;;;;;63.60;59.55;;;;;;;20.64;76.75;97070.22;5065696;28;20201;-61
2022/10/30 11:16:34;;;;;;;58.35;54.83;;;;;;;20.70;76.60;97073.63;5072901;28;20583;-60
2022/10/30 11:19:03;;;;;;;51.80;48.28;;;;;;;20.71;75.61;97068.03;5078177;28;20240;-61
2022/10/30 11:21:34;;;;;;;140.48;131.88;;;;;;;20.68;75.25;97070.44;5093117;28;20173;-60